Time;durP1;ratioP1;P1;durP2;ratioP2;P2;SDS_P1;SDS_P2;PMS_P1;PMS_P2;Temp;Humidity;BMP_temperature;BMP_pressure;BME280_temperature;BME280_humidity;BME280_pressure;Samples;Min_cycle;Max_cycle;Signal;HPM_P1;HPM_P2
2024/03/03 00:02:20;;;;;;;15.70;11.77;;;;;;;11.76;64.33;98643.41;10421563;28;20059;-62
2024/03/03 00:07:22;;;;;;;11.98;10.38;;;;;;;11.75;64.84;98639.09;10432613;28;20064;-62
2024/03/03 00:12:23;;;;;;;11.52;10.30;;;;;;;11.70;64.94;98636.09;10430907;28;20075;-62
2024/03/03 00:17:25;;;;;;;13.45;10.88;;;;;;;11.42;64.82;98597.34;10427738;28;20076;-62
2024/03/03 00:22:26;;;;;;;12.05;10.10;;;;;;;11.61;65.48;98628.13;10432981;28;20063;-62
2024/03/03 00:27:29;;;;;;;11.35;10.13;;;;;;;11.64;65.35;98626.94;10427242;28;20040;-63
2024/03/03 00:32:31;;;;;;;13.73;10.88;;;;;;;11.53;65.48;98609.50;10431262;28;20052;-62
2024/03/03 00:37:32;;;;;;;11.02;9.48;;;;;;;11.59;65.76;98608.81;10432676;28;20596;-61
2024/03/03 00:42:34;;;;;;;13.35;10.02;;;;;;;11.52;66.03;98607.81;10433977;28;20136;-63
2024/03/03 00:47:35;;;;;;;11.40;9.85;;;;;;;11.48;66.10;98590.50;10394014;28;20048;-62
2024/03/03 00:52:37;;;;;;;12.05;10.23;;;;;;;11.40;66.24;98586.03;10421665;28;20358;-63
2024/03/03 00:57:38;;;;;;;11.52;10.18;;;;;;;11.39;66.40;98591.53;10429956;28;20056;-60
2024/03/03 01:02:40;;;;;;;11.07;9.95;;;;;;;11.39;66.97;98580.88;10419317;28;20061;-64
2024/03/03 01:07:42;;;;;;;12.93;10.77;;;;;;;11.38;66.78;98569.41;10403003;28;20052;-63
2024/03/03 01:12:44;;;;;;;12.05;10.00;;;;;;;11.35;66.97;98574.22;10400365;28;20143;-62
2024/03/03 01:17:45;;;;;;;13.35;10.18;;;;;;;11.31;67.28;98569.22;10417964;28;20050;-62
2024/03/03 01:22:46;;;;;;;13.95;11.02;;;;;;;11.25;67.34;98559.25;10417610;28;20086;-63
2024/03/03 01:27:48;;;;;;;14.27;11.60;;;;;;;11.22;67.51;98564.91;10413260;28;20141;-63
2024/03/03 01:32:49;;;;;;;12.25;10.32;;;;;;;11.26;67.41;98560.94;10441281;28;20456;-63
2024/03/03 01:37:51;;;;;;;13.02;10.57;;;;;;;11.23;67.65;98555.94;10443759;28;20537;-61
2024/03/03 01:42:56;;;;;;;11.20;9.80;;;;;;;11.25;67.81;98551.25;10439732;28;20072;-62
2024/03/03 01:47:58;;;;;;;12.32;10.23;;;;;;;11.25;67.71;98540.59;10435784;28;20056;-65
2024/03/03 01:52:59;;;;;;;15.85;10.50;;;;;;;11.18;67.98;98526.31;10415385;28;20123;-63
2024/03/03 01:58:03;;;;;;;11.50;10.32;;;;;;;11.14;68.00;98519.66;10416427;28;20209;-62
2024/03/03 02:03:08;;;;;;;12.10;10.80;;;;;;;11.14;68.11;98523.16;10431117;28;22431;-63
2024/03/03 02:08:10;;;;;;;11.55;10.05;;;;;;;11.05;68.08;98504.69;10440508;28;20056;-63
2024/03/03 02:13:11;;;;;;;10.65;9.13;;;;;;;11.08;68.17;98520.31;10441634;28;20052;-63
2024/03/03 02:18:13;;;;;;;10.98;9.80;;;;;;;11.08;68.57;98507.00;10445992;28;20053;-64
2024/03/03 02:23:14;;;;;;;13.85;10.90;;;;;;;11.07;68.53;98508.03;10434470;28;20084;-61
2024/03/03 02:28:16;;;;;;;10.65;9.57;;;;;;;11.06;68.80;98519.66;10438214;28;20064;-63
2024/03/03 02:33:21;;;;;;;12.18;10.07;;;;;;;11.02;69.01;98495.22;10394722;28;20052;-63
2024/03/03 02:38:23;;;;;;;10.90;9.55;;;;;;;10.98;68.65;98493.91;10428504;28;20574;-62
2024/03/03 02:43:24;;;;;;;12.38;10.85;;;;;;;10.82;68.29;98510.72;10414065;28;20126;-62
2024/03/03 02:48:26;;;;;;;12.90;10.65;;;;;;;10.76;68.65;98548.63;10437755;28;20052;-62
2024/03/03 02:53:27;;;;;;;12.60;11.05;;;;;;;10.75;68.86;98525.72;10430765;28;20733;-62
2024/03/03 02:58:29;;;;;;;12.00;9.90;;;;;;;10.71;68.98;98545.66;10422834;28;20123;-63
2024/03/03 03:03:31;;;;;;;12.75;9.82;;;;;;;10.49;69.40;98536.50;10432506;28;20049;-63
2024/03/03 03:08:32;;;;;;;11.65;9.65;;;;;;;10.50;68.92;98539.00;10434102;28;20056;-61
2024/03/03 03:13:34;;;;;;;12.43;9.65;;;;;;;10.35;69.12;98530.81;10434989;28;20056;-62
2024/03/03 03:18:38;;;;;;;10.75;9.60;;;;;;;10.42;69.40;98536.34;10433556;28;20115;-61
2024/03/03 03:23:39;;;;;;;12.23;10.23;;;;;;;10.39;69.02;98537.50;10425509;28;20457;-62
2024/03/03 03:28:41;;;;;;;11.15;9.95;;;;;;;10.27;69.19;98528.97;10435604;28;20083;-60
2024/03/03 03:33:42;;;;;;;10.88;9.77;;;;;;;10.35;70.24;98530.81;10435962;28;20834;-63
2024/03/03 03:38:45;;;;;;;13.35;10.27;;;;;;;10.30;69.64;98532.28;10435611;28;20050;-60
2024/03/03 03:43:48;;;;;;;11.85;10.50;;;;;;;10.34;70.27;98544.28;10411994;28;20729;-60
2024/03/03 03:48:49;;;;;;;10.20;9.10;;;;;;;10.33;70.44;98548.78;10433095;28;20098;-63
2024/03/03 03:53:51;;;;;;;11.77;10.10;;;;;;;10.35;70.62;98559.25;10418720;28;20049;-60
2024/03/03 03:58:53;;;;;;;11.40;9.70;;;;;;;10.29;70.46;98559.88;10432725;28;20048;-63
2024/03/03 04:03:55;;;;;;;11.38;10.10;;;;;;;10.21;71.00;98542.91;10416146;28;20090;-62
2024/03/03 04:08:57;;;;;;;12.90;10.27;;;;;;;10.32;71.47;98547.06;10426072;28;20494;-61
2024/03/03 04:13:58;;;;;;;10.98;9.85;;;;;;;10.31;71.96;98537.44;10406039;28;20048;-63
2024/03/03 04:19:00;;;;;;;13.50;10.57;;;;;;;10.33;71.43;98539.91;10413371;28;20052;-62
2024/03/03 04:24:08;;;;;;;12.77;10.25;;;;;;;10.30;71.53;98543.75;10426380;28;20052;-63
2024/03/03 04:29:09;;;;;;;11.73;10.50;;;;;;;10.27;71.56;98547.56;10425309;28;20167;-63
2024/03/03 04:34:11;;;;;;;12.82;10.90;;;;;;;10.19;71.61;98547.56;10422657;28;20052;-62
2024/03/03 04:39:13;;;;;;;11.45;10.25;;;;;;;10.13;72.15;98531.41;10427824;28;20071;-60
2024/03/03 04:44:14;;;;;;;11.88;10.13;;;;;;;10.01;71.92;98507.81;10428635;28;20076;-61
2024/03/03 04:49:16;;;;;;;13.57;11.88;;;;;;;10.16;71.88;98541.72;10414811;28;20052;-63
2024/03/03 04:54:17;;;;;;;11.55;10.25;;;;;;;10.17;72.25;98543.41;10411298;28;20052;-60
2024/03/03 04:59:19;;;;;;;13.52;10.38;;;;;;;10.17;72.26;98522.94;10408315;28;20068;-64
2024/03/03 05:04:22;;;;;;;12.00;10.70;;;;;;;10.11;72.06;98526.25;10414638;28;20180;-63
2024/03/03 05:09:24;;;;;;;12.65;10.85;;;;;;;10.09;72.36;98536.25;10424311;28;20127;-62
2024/03/03 05:14:25;;;;;;;11.10;9.82;;;;;;;10.13;72.54;98536.72;10414649;28;20624;-61
2024/03/03 05:19:27;;;;;;;11.63;10.43;;;;;;;10.07;72.65;98530.22;10425305;28;20162;-60
2024/03/03 05:24:30;;;;;;;12.43;10.25;;;;;;;10.11;72.65;98536.91;10425849;28;20584;-63
2024/03/03 05:29:32;;;;;;;11.27;10.18;;;;;;;10.16;72.80;98541.72;10428179;28;20884;-64
2024/03/03 05:34:33;;;;;;;11.85;10.48;;;;;;;10.16;72.43;98547.88;10391550;28;20146;-62
2024/03/03 05:39:35;;;;;;;12.48;10.50;;;;;;;10.15;72.43;98563.97;10413817;28;20105;-63
2024/03/03 05:44:37;;;;;;;13.50;11.10;;;;;;;10.09;72.67;98557.50;10409939;28;20051;-62
2024/03/03 05:49:39;;;;;;;11.65;10.38;;;;;;;10.14;72.85;98549.88;10407691;28;20711;-63
2024/03/03 05:54:40;;;;;;;11.50;10.30;;;;;;;10.15;72.90;98546.22;10416695;28;20128;-64
2024/03/03 05:59:41;;;;;;;11.23;9.82;;;;;;;10.13;72.87;98553.50;10420470;28;20053;-63
2024/03/03 06:04:43;;;;;;;12.38;10.65;;;;;;;10.12;72.93;98557.19;10432894;28;20501;-62
2024/03/03 06:09:44;;;;;;;14.13;11.23;;;;;;;10.12;72.63;98561.66;10435005;28;20057;-63
2024/03/03 06:14:47;;;;;;;12.75;10.82;;;;;;;10.09;73.04;98563.66;10425888;28;20055;-64
2024/03/03 06:19:49;;;;;;;12.93;10.90;;;;;;;10.06;72.98;98565.81;10434717;28;20064;-64
2024/03/03 06:24:50;;;;;;;12.60;10.05;;;;;;;9.96;73.49;98549.97;10431980;28;20036;-59
2024/03/03 06:29:53;;;;;;;12.10;10.32;;;;;;;9.99;73.07;98547.00;10425284;28;20422;-63
2024/03/03 06:34:54;;;;;;;13.10;10.88;;;;;;;10.00;73.14;98553.16;10426556;28;21253;-60
2024/03/03 06:39:57;;;;;;;12.30;10.98;;;;;;;10.03;73.30;98548.34;10436157;28;20052;-63
2024/03/03 06:45:00;;;;;;;14.68;11.52;;;;;;;10.02;72.86;98545.84;10434436;28;20043;-65
2024/03/03 06:50:04;;;;;;;11.63;10.35;;;;;;;10.03;72.90;98542.22;10428254;28;20133;-62
2024/03/03 06:55:07;;;;;;;11.88;10.02;;;;;;;10.13;72.07;98553.50;10434585;28;20150;-62
2024/03/03 07:00:09;;;;;;;11.82;10.40;;;;;;;10.18;72.66;98548.56;10419688;28;20040;-63
2024/03/03 07:05:10;;;;;;;11.55;9.75;;;;;;;10.22;72.25;98555.22;10434878;28;20064;-62
2024/03/03 07:10:12;;;;;;;10.32;9.23;;;;;;;10.30;72.02;98559.72;10402218;28;20053;-63
2024/03/03 07:15:14;;;;;;;12.73;9.55;;;;;;;10.34;71.49;98554.94;10393919;28;20094;-63
2024/03/03 07:20:15;;;;;;;10.50;9.13;;;;;;;10.52;71.67;98568.91;10410581;28;20053;-63
2024/03/03 07:25:17;;;;;;;10.75;9.65;;;;;;;10.66;70.67;98571.91;10430069;28;20154;-65
2024/03/03 07:30:18;;;;;;;10.88;9.77;;;;;;;10.85;70.50;98568.94;10430710;28;20511;-62
2024/03/03 07:35:23;;;;;;;11.30;9.43;;;;;;;11.03;70.03;98565.28;10416592;28;20060;-63
2024/03/03 07:40:29;;;;;;;11.02;9.93;;;;;;;11.15;69.08;98563.94;10428119;28;20056;-61
2024/03/03 07:45:31;;;;;;;14.20;10.93;;;;;;;11.30;68.69;98575.56;10432284;28;20052;-62
2024/03/03 07:50:32;;;;;;;12.23;10.93;;;;;;;11.45;68.21;98574.84;10428178;28;20189;-63
2024/03/03 07:55:35;;;;;;;12.27;10.98;;;;;;;11.62;67.64;98573.81;10424842;28;20187;-65
2024/03/03 08:00:37;;;;;;;13.30;10.70;;;;;;;11.73;67.38;98569.94;10428698;28;20682;-62
2024/03/03 08:05:41;;;;;;;9.85;8.85;;;;;;;11.90;66.55;98576.03;10420183;28;20052;-64
2024/03/03 08:10:42;;;;;;;11.98;9.60;;;;;;;11.98;66.06;98576.06;10433596;28;20812;-64
2024/03/03 08:15:44;;;;;;;11.45;10.30;;;;;;;12.12;65.50;98574.47;10432889;28;20053;-62
2024/03/03 08:20:45;;;;;;;11.50;10.30;;;;;;;12.20;65.19;98560.25;10418915;28;20227;-63
2024/03/03 08:25:47;;;;;;;12.23;10.90;;;;;;;12.41;64.84;98569.50;10411371;28;20052;-63
2024/03/03 08:30:48;;;;;;;12.05;10.13;;;;;;;12.57;64.04;98557.88;10398519;28;20067;-62
2024/03/03 08:35:50;;;;;;;10.82;9.73;;;;;;;12.76;63.92;98552.06;10433226;28;20060;-63
2024/03/03 08:40:51;;;;;;;11.77;10.52;;;;;;;12.96;62.77;98557.72;10415378;28;20053;-65
2024/03/03 08:45:52;;;;;;;11.07;9.73;;;;;;;13.17;62.59;98545.53;10423435;28;20178;-62
2024/03/03 08:50:54;;;;;;;12.32;10.63;;;;;;;13.38;61.92;98548.34;10429494;28;20125;-62
2024/03/03 08:55:56;;;;;;;11.85;10.57;;;;;;;13.59;60.80;98541.44;10396379;28;20059;-64
2024/03/03 09:00:58;;;;;;;11.48;10.00;;;;;;;13.86;60.67;98541.78;10416055;28;20817;-64
2024/03/03 09:06:00;;;;;;;14.48;10.75;;;;;;;14.04;59.71;98534.19;10413186;28;20049;-63
2024/03/03 09:11:05;;;;;;;12.80;11.50;;;;;;;14.28;58.10;98546.41;10400030;28;20538;-62
2024/03/03 09:16:07;;;;;;;;;;;;;;;14.43;57.43;98549.03;10433958;28;20081;-62
2024/03/03 09:21:10;;;;;;;11.52;9.93;;;;;;;14.60;56.14;98554.13;10419601;28;20007;-62
2024/03/03 09:26:11;;;;;;;13.25;10.75;;;;;;;14.90;55.41;98538.78;10430994;28;20716;-63
2024/03/03 09:31:16;;;;;;;13.40;10.57;;;;;;;15.01;54.71;98515.97;10434171;28;20851;-63
2024/03/03 09:36:18;;;;;;;11.88;10.68;;;;;;;15.42;53.80;98550.09;10433682;28;20052;-65
2024/03/03 09:41:20;;;;;;;12.27;10.05;;;;;;;15.65;53.61;98540.94;10418708;28;20060;-61
2024/03/03 09:46:22;;;;;;;12.07;10.70;;;;;;;15.97;53.16;98533.28;10427478;28;20053;-63
2024/03/03 09:51:26;;;;;;;11.60;10.32;;;;;;;16.31;52.15;98521.63;10440886;28;20821;-61
2024/03/03 09:56:31;;;;;;;11.80;10.20;;;;;;;16.51;50.91;98500.16;10441334;28;20083;-63
2024/03/03 10:01:35;;;;;;;11.32;10.23;;;;;;;16.94;50.77;98496.28;10441888;28;20048;-64
2024/03/03 10:06:38;;;;;;;12.45;9.60;;;;;;;17.29;49.29;98504.94;10439323;28;20522;-65
2024/03/03 10:11:42;;;;;;;11.13;9.65;;;;;;;17.57;47.62;98501.13;10408791;28;20040;-64
2024/03/03 10:16:43;;;;;;;11.32;10.23;;;;;;;17.93;47.40;98502.50;10421810;28;20694;-62
2024/03/03 10:21:47;;;;;;;11.55;10.50;;;;;;;18.19;46.47;98508.78;10383007;28;20226;-61
2024/03/03 10:26:57;;;;;;;11.20;9.98;;;;;;;18.51;44.83;98498.00;10400588;28;21090;-64
2024/03/03 10:32:06;;;;;;;11.88;9.10;;;;;;;18.90;43.66;98509.59;10429726;28;20164;-64
2024/03/03 10:37:11;;;;;;;9.32;8.38;;;;;;;19.28;43.82;98505.09;10423654;28;20091;-62
2024/03/03 10:42:14;;;;;;;10.32;9.27;;;;;;;19.33;42.68;98480.97;10439874;28;20045;-64
2024/03/03 10:47:16;;;;;;;10.57;8.25;;;;;;;19.61;41.97;98489.38;10429665;28;20143;-62
2024/03/03 10:52:21;;;;;;;10.73;9.23;;;;;;;20.02;40.87;98484.31;10435437;28;20067;-61
2024/03/03 10:57:25;;;;;;;10.00;9.05;;;;;;;20.66;39.83;98479.25;10439035;28;20056;-62
2024/03/03 11:02:30;;;;;;;9.73;8.65;;;;;;;21.33;38.30;98475.41;10428616;28;20155;-65
2024/03/03 11:07:33;;;;;;;10.15;9.07;;;;;;;21.84;38.13;98456.75;10432361;28;20055;-64
2024/03/03 11:12:36;;;;;;;9.48;8.57;;;;;;;22.50;36.98;98453.59;10420069;28;20564;-63
2024/03/03 11:17:39;;;;;;;;;;;;;;;23.19;34.78;98443.56;10421506;28;20621;-62
2024/03/03 11:22:53;;;;;;;9.02;8.13;;;;;;;23.76;34.44;98434.25;10405198;28;19944;-63
2024/03/03 11:27:58;;;;;;;8.57;7.72;;;;;;;24.21;33.19;98433.13;10419090;28;20206;-62
2024/03/03 11:33:01;;;;;;;9.02;8.23;;;;;;;24.86;32.73;98435.84;10403998;28;20267;-63
2024/03/03 11:38:02;;;;;;;10.00;9.00;;;;;;;25.16;30.62;98404.47;10437109;28;20056;-64
2024/03/03 11:43:04;;;;;;;8.95;8.05;;;;;;;25.79;30.07;98411.84;10434071;28;20122;-62
2024/03/03 11:48:09;;;;;;;7.78;7.07;;;;;;;26.23;28.75;98411.44;10416906;28;20068;-63
2024/03/03 11:53:11;;;;;;;8.27;7.03;;;;;;;26.75;28.64;98409.53;10437147;28;20596;-63
2024/03/03 11:58:17;;;;;;;7.63;6.93;;;;;;;27.16;28.03;98396.63;10430114;28;20537;-63
2024/03/03 12:03:19;;;;;;;8.50;7.63;;;;;;;27.26;28.47;98403.97;10432463;28;20036;-64
2024/03/03 12:08:22;;;;;;;7.50;6.80;;;;;;;27.92;27.23;98384.81;10432833;28;20506;-62
2024/03/03 12:13:24;;;;;;;7.53;6.82;;;;;;;28.49;26.73;98387.97;10402837;28;20052;-67
2024/03/03 12:18:29;;;;;;;8.52;7.70;;;;;;;28.68;25.45;98399.06;10412032;28;20044;-62
2024/03/03 12:23:31;;;;;;;6.72;6.03;;;;;;;29.27;25.09;98403.41;10395919;28;20079;-63
2024/03/03 12:28:33;;;;;;;7.50;6.80;;;;;;;29.47;24.06;98395.22;10425000;28;20115;-61
2024/03/03 12:33:42;;;;;;;6.40;5.47;;;;;;;31.07;24.15;98396.38;10425340;28;20197;-62
2024/03/03 12:38:43;;;;;;;6.45;5.85;;;;;;;32.14;21.21;98390.56;10423081;28;20047;-65
2024/03/03 12:43:48;;;;;;;6.20;5.55;;;;;;;33.26;19.87;98388.81;10429864;28;20463;-64
2024/03/03 12:48:49;;;;;;;6.32;5.72;;;;;;;33.30;19.13;98381.53;10432629;28;20055;-64
2024/03/03 12:53:54;;;;;;;6.25;5.75;;;;;;;33.93;19.29;98375.00;10428894;28;20139;-64
2024/03/03 12:58:56;;;;;;;5.40;4.95;;;;;;;34.33;18.84;98366.56;10433697;28;20143;-65
2024/03/03 13:03:58;;;;;;;5.43;4.93;;;;;;;34.67;17.85;98356.59;10414952;28;20051;-65
2024/03/03 13:09:00;;;;;;;5.97;5.18;;;;;;;34.11;19.08;98349.03;10404297;28;20053;-61
2024/03/03 13:14:03;;;;;;;7.20;5.85;;;;;;;32.69;19.67;98348.19;10392006;28;20744;-64
2024/03/03 13:19:05;;;;;;;5.35;4.85;;;;;;;31.13;21.10;98340.22;10439556;28;21147;-64
2024/03/03 13:24:13;;;;;;;5.78;5.18;;;;;;;29.77;23.01;98328.19;10430664;28;20892;-64
2024/03/03 13:29:15;;;;;;;6.22;5.22;;;;;;;28.81;24.65;98338.19;10433210;28;20138;-64
2024/03/03 13:34:17;;;;;;;6.23;5.63;;;;;;;28.02;25.33;98324.63;10399631;28;20044;-63
2024/03/03 13:39:18;;;;;;;6.47;5.87;;;;;;;27.71;25.94;98319.34;10435071;28;20041;-65
2024/03/03 13:44:19;;;;;;;6.40;5.72;;;;;;;27.86;25.52;98326.63;10436469;28;20130;-66
2024/03/03 13:49:23;;;;;;;5.97;5.47;;;;;;;28.37;25.60;98315.31;10428457;28;20044;-64
2024/03/03 13:54:24;;;;;;;6.65;5.43;;;;;;;27.77;25.88;98329.13;10437348;28;20110;-65
2024/03/03 13:59:26;;;;;;;6.33;4.70;;;;;;;28.26;25.24;98332.91;10434582;28;20052;-64
2024/03/03 14:04:28;;;;;;;5.65;4.80;;;;;;;28.12;25.53;98324.56;10422982;28;20117;-64
2024/03/03 14:09:30;;;;;;;5.00;4.55;;;;;;;27.55;26.12;98321.38;10436011;28;20075;-63
2024/03/03 14:14:31;;;;;;;5.77;4.93;;;;;;;27.96;25.10;98328.47;10420550;28;20052;-63
2024/03/03 14:19:33;;;;;;;5.90;5.20;;;;;;;28.65;24.91;98325.75;10426364;28;20056;-61
2024/03/03 14:24:35;;;;;;;4.75;4.28;;;;;;;28.91;23.99;98318.06;10440080;28;20051;-65
2024/03/03 14:29:37;;;;;;;5.00;4.53;;;;;;;30.05;22.64;98326.44;10434354;28;20052;-64
2024/03/03 14:34:38;;;;;;;5.97;5.37;;;;;;;31.62;21.44;98327.66;10421238;28;20215;-65
2024/03/03 14:39:40;;;;;;;4.45;4.07;;;;;;;32.68;19.50;98329.22;10435934;28;20389;-66
2024/03/03 14:44:41;;;;;;;4.78;4.38;;;;;;;33.56;18.89;98322.06;10409140;28;20517;-64
2024/03/03 14:49:43;;;;;;;4.30;3.75;;;;;;;33.86;18.17;98341.59;10424448;28;20414;-66
2024/03/03 14:54:47;;;;;;;4.00;3.58;;;;;;;33.54;18.67;98343.63;10425928;28;20863;-66
2024/03/03 14:59:48;;;;;;;3.75;3.45;;;;;;;30.75;21.62;98341.19;10400239;28;20049;-65
2024/03/03 15:04:53;;;;;;;5.00;3.85;;;;;;;28.10;24.41;98342.34;10429049;28;20053;-63
2024/03/03 15:09:58;;;;;;;5.07;4.57;;;;;;;26.59;26.53;98338.59;10418876;28;20529;-64
2024/03/03 15:14:59;;;;;;;4.30;3.92;;;;;;;25.52;27.61;98336.56;10438281;28;20044;-64
2024/03/03 15:20:11;;;;;;;3.88;3.47;;;;;;;24.73;28.64;98330.22;10418832;28;20531;-63
2024/03/03 15:25:13;;;;;;;6.15;4.60;;;;;;;24.10;30.05;98345.25;10419511;28;20075;-63
2024/03/03 15:30:16;;;;;;;5.05;4.53;;;;;;;23.48;30.45;98338.34;10438094;28;20116;-64
2024/03/03 15:35:17;;;;;;;4.63;4.22;;;;;;;22.97;31.67;98353.97;10435987;28;20057;-65
2024/03/03 15:40:19;;;;;;;4.88;4.35;;;;;;;22.60;32.12;98350.75;10422501;28;20056;-64
2024/03/03 15:45:21;;;;;;;5.75;4.95;;;;;;;22.33;32.89;98357.94;10419816;28;20139;-63
2024/03/03 15:50:22;;;;;;;6.72;5.85;;;;;;;21.98;33.67;98369.75;10415615;28;20064;-63
2024/03/03 15:55:24;;;;;;;5.78;4.82;;;;;;;21.55;33.77;98366.53;10430339;28;20134;-66
2024/03/03 16:00:26;;;;;;;6.35;4.55;;;;;;;21.35;34.04;98373.16;10435389;28;20044;-63
2024/03/03 16:05:28;;;;;;;5.43;4.85;;;;;;;21.07;34.63;98370.41;10386140;28;20049;-63
2024/03/03 16:10:29;;;;;;;4.88;4.38;;;;;;;20.75;34.30;98377.03;10426181;28;20057;-63
2024/03/03 16:15:31;;;;;;;5.25;4.35;;;;;;;20.56;35.13;98386.28;10416876;28;20371;-63
2024/03/03 16:20:32;;;;;;;5.25;4.75;;;;;;;20.32;35.79;98394.34;10427277;28;20048;-61
2024/03/03 16:25:36;;;;;;;5.93;4.93;;;;;;;20.20;36.46;98407.00;10398528;28;20131;-63
2024/03/03 16:30:38;;;;;;;5.25;4.75;;;;;;;19.88;36.86;98396.47;10388834;28;20055;-64
2024/03/03 16:35:44;;;;;;;6.18;5.20;;;;;;;19.78;37.28;98419.41;10422637;28;20053;-63
2024/03/03 16:40:45;;;;;;;5.78;5.28;;;;;;;19.54;37.83;98409.53;10416433;28;20071;-66
2024/03/03 16:45:48;;;;;;;5.78;5.28;;;;;;;19.42;38.03;98421.06;10419561;28;20056;-64
2024/03/03 16:50:49;;;;;;;6.30;5.30;;;;;;;19.26;38.32;98440.59;10402109;28;20059;-66
2024/03/03 16:55:51;;;;;;;5.95;5.35;;;;;;;19.14;38.58;98445.06;10426577;28;20060;-68
2024/03/03 17:00:53;;;;;;;5.18;4.68;;;;;;;18.96;38.92;98454.78;10404748;28;20078;-64
2024/03/03 17:05:55;;;;;;;5.25;4.75;;;;;;;18.77;39.46;98451.19;10382739;28;20055;-65
2024/03/03 17:10:56;;;;;;;6.28;5.57;;;;;;;18.53;39.57;98447.44;10412350;28;20056;-64
2024/03/03 17:15:59;;;;;;;6.90;5.93;;;;;;;18.48;39.65;98464.28;10428404;28;20059;-63
2024/03/03 17:21:00;;;;;;;7.85;7.03;;;;;;;18.32;40.44;98470.19;10396603;28;20588;-63
2024/03/03 17:26:02;;;;;;;9.00;8.15;;;;;;;18.15;40.20;98480.63;10407106;28;20717;-64
2024/03/03 17:31:04;;;;;;;9.73;8.18;;;;;;;18.01;40.79;98486.09;10406865;28;20192;-65
2024/03/03 17:36:07;;;;;;;8.30;7.38;;;;;;;17.88;41.12;98496.06;10369281;28;20194;-64
2024/03/03 17:41:08;;;;;;;8.48;7.55;;;;;;;17.73;41.69;98502.53;10403438;28;20121;-64
2024/03/03 17:46:10;;;;;;;6.80;6.15;;;;;;;17.60;42.00;98514.16;10391618;28;20045;-64
2024/03/03 17:51:12;;;;;;;6.43;5.82;;;;;;;17.58;42.01;98529.69;10413515;28;20168;-64
2024/03/03 17:56:13;;;;;;;6.50;5.90;;;;;;;17.47;42.17;98514.19;10419157;28;20053;-65
2024/03/03 18:01:15;;;;;;;7.78;6.32;;;;;;;17.33;42.60;98520.66;10396513;28;20561;-68
2024/03/03 18:06:19;;;;;;;8.52;7.63;;;;;;;17.20;43.29;98532.25;10384933;28;20057;-63
2024/03/03 18:11:20;;;;;;;6.88;6.20;;;;;;;17.10;43.58;98527.31;10427780;28;20714;-65
2024/03/03 18:16:23;;;;;;;7.18;5.72;;;;;;;17.00;43.56;98534.97;10410975;28;20101;-63
2024/03/03 18:21:25;;;;;;;7.55;6.78;;;;;;;16.88;43.90;98540.94;10429175;28;20057;-63
2024/03/03 18:26:27;;;;;;;6.85;6.15;;;;;;;16.82;44.16;98541.72;10430397;28;20053;-64
2024/03/03 18:31:29;;;;;;;11.10;9.93;;;;;;;16.73;44.63;98548.34;10403388;28;20511;-63
2024/03/03 18:36:32;;;;;;;8.32;7.53;;;;;;;16.62;45.09;98549.78;10412769;28;20057;-65
2024/03/03 18:41:33;;;;;;;6.82;6.15;;;;;;;16.57;45.26;98547.72;10397733;28;20053;-62
2024/03/03 18:46:37;;;;;;;7.90;6.88;;;;;;;16.48;45.49;98551.59;10431156;28;20063;-64
2024/03/03 18:51:39;;;;;;;7.28;6.57;;;;;;;16.47;46.10;98555.34;10432872;28;20067;-64
2024/03/03 18:56:41;;;;;;;8.43;6.72;;;;;;;16.39;46.02;98558.19;10391873;28;20731;-66
2024/03/03 19:01:43;;;;;;;6.93;6.22;;;;;;;16.34;46.35;98564.16;10417285;28;20048;-65
2024/03/03 19:06:47;;;;;;;7.57;6.78;;;;;;;16.26;46.70;98570.53;10410918;28;20067;-63
2024/03/03 19:11:49;;;;;;;8.57;6.72;;;;;;;16.20;46.85;98571.34;10427730;28;20594;-63
2024/03/03 19:16:50;;;;;;;6.50;5.85;;;;;;;16.11;46.86;98569.03;10420207;28;20490;-65
2024/03/03 19:21:51;;;;;;;9.70;7.00;;;;;;;16.06;47.08;98580.38;10427234;28;20052;-63
2024/03/03 19:26:55;;;;;;;11.48;9.07;;;;;;;15.89;48.05;98596.81;10401432;28;20048;-64
2024/03/03 19:31:57;;;;;;;8.13;7.35;;;;;;;15.78;48.12;98593.84;10431531;28;20137;-63
2024/03/03 19:36:58;;;;;;;8.93;7.30;;;;;;;15.62;48.09;98584.25;10429507;28;20052;-66
2024/03/03 19:42:01;;;;;;;7.97;6.93;;;;;;;15.56;48.95;98592.03;10414985;28;20106;-64
2024/03/03 19:47:04;;;;;;;9.35;7.28;;;;;;;15.58;48.92;98599.06;10434194;28;20142;-63
2024/03/03 19:52:07;;;;;;;8.90;6.80;;;;;;;15.59;49.40;98598.06;10419169;28;20380;-64
2024/03/03 19:57:12;;;;;;;6.78;6.10;;;;;;;15.44;49.54;98598.97;10413072;28;20060;-63
2024/03/03 20:02:16;;;;;;;6.63;6.03;;;;;;;15.39;49.93;98606.78;10414361;28;20557;-63
2024/03/03 20:07:19;;;;;;;7.70;6.90;;;;;;;15.27;50.66;98621.75;10429878;28;20398;-63
2024/03/03 20:12:20;;;;;;;7.70;6.90;;;;;;;15.23;50.76;98629.34;10412613;28;20052;-64
2024/03/03 20:17:22;;;;;;;8.57;7.00;;;;;;;15.06;51.51;98628.78;10406319;28;20163;-64
2024/03/03 20:22:25;;;;;;;8.93;8.00;;;;;;;14.84;52.10;98614.56;10426678;28;20056;-63
2024/03/03 20:27:27;;;;;;;10.27;7.28;;;;;;;14.94;51.74;98630.31;10425705;28;20561;-63
2024/03/03 20:32:28;;;;;;;6.95;6.32;;;;;;;14.97;52.01;98640.66;10392493;28;20892;-63
2024/03/03 20:37:30;;;;;;;8.25;7.45;;;;;;;14.88;52.16;98642.63;10419982;28;20075;-64
2024/03/03 20:42:33;;;;;;;7.30;6.45;;;;;;;14.76;52.37;98642.28;10429293;28;20475;-64
2024/03/03 20:47:38;;;;;;;8.02;6.10;;;;;;;14.72;52.26;98634.84;10424594;28;20056;-63
2024/03/03 20:52:40;;;;;;;7.85;6.97;;;;;;;14.66;52.75;98655.16;10391229;28;20198;-62
2024/03/03 20:57:42;;;;;;;8.73;7.82;;;;;;;14.49;53.27;98655.34;10431964;28;20070;-64
2024/03/03 21:02:43;;;;;;;8.88;7.50;;;;;;;14.39;53.76;98665.53;10428935;28;20052;-65
2024/03/03 21:07:45;;;;;;;9.85;7.47;;;;;;;14.24;54.53;98683.44;10431971;28;20045;-64
2024/03/03 21:12:48;;;;;;;11.40;8.98;;;;;;;14.22;54.81;98688.16;10412555;28;20048;-64
2024/03/03 21:17:49;;;;;;;9.52;8.07;;;;;;;14.07;55.26;98677.47;10428399;28;20063;-65
2024/03/03 21:22:51;;;;;;;10.65;8.77;;;;;;;13.96;55.58;98692.09;10410739;28;20631;-62
2024/03/03 21:27:52;;;;;;;9.30;8.05;;;;;;;13.80;55.89;98682.44;10421910;28;20072;-65
2024/03/03 21:32:54;;;;;;;10.90;9.82;;;;;;;13.76;57.35;98702.50;10425178;28;20075;-64
2024/03/03 21:37:55;;;;;;;10.70;9.60;;;;;;;13.70;57.85;98706.75;10419894;28;20045;-64
2024/03/03 21:42:57;;;;;;;12.85;10.57;;;;;;;13.60;57.65;98708.84;10421073;28;20057;-64
2024/03/03 21:47:58;;;;;;;13.07;11.00;;;;;;;13.55;58.06;98722.75;10409902;28;20114;-64
2024/03/03 21:53:01;;;;;;;12.52;10.75;;;;;;;13.47;58.66;98716.66;10426407;28;20186;-65
2024/03/03 21:58:03;;;;;;;11.63;10.43;;;;;;;13.43;59.24;98714.31;10400041;28;20048;-65
2024/03/03 22:03:04;;;;;;;13.73;11.25;;;;;;;13.27;60.40;98719.78;10398191;28;20186;-64
2024/03/03 22:08:07;;;;;;;14.93;12.07;;;;;;;13.17;60.21;98720.00;10416270;28;20127;-64
2024/03/03 22:13:09;;;;;;;15.18;12.20;;;;;;;13.25;60.34;98735.97;10401204;28;20514;-68
2024/03/03 22:18:10;;;;;;;13.05;11.77;;;;;;;13.19;61.32;98731.34;10413872;28;20060;-65
2024/03/03 22:23:13;;;;;;;14.25;12.70;;;;;;;13.18;61.03;98742.19;10437798;28;20051;-65
2024/03/03 22:28:14;;;;;;;15.57;12.20;;;;;;;13.03;61.56;98728.78;10429987;28;20048;-65
2024/03/03 22:33:16;;;;;;;15.77;12.93;;;;;;;13.12;61.33;98753.59;10401567;28;20530;-64
2024/03/03 22:38:18;;;;;;;15.18;12.38;;;;;;;12.96;62.02;98723.31;10411349;28;20056;-64
2024/03/03 22:43:20;;;;;;;14.55;12.60;;;;;;;13.02;61.64;98752.00;10423224;28;20065;-64
2024/03/03 22:48:21;;;;;;;14.43;12.90;;;;;;;13.00;62.49;98756.69;10397536;28;20057;-64
2024/03/03 22:53:23;;;;;;;14.43;12.95;;;;;;;13.01;61.97;98762.84;10410723;28;20275;-64
2024/03/03 22:58:26;;;;;;;17.38;14.10;;;;;;;12.78;62.95;98741.47;10399501;28;20057;-63
2024/03/03 23:03:28;;;;;;;15.32;13.73;;;;;;;12.91;62.87;98768.44;10430993;28;20056;-65
2024/03/03 23:08:30;;;;;;;16.85;12.65;;;;;;;12.90;62.90;98774.75;10409645;28;20060;-64
2024/03/03 23:13:31;;;;;;;15.38;13.00;;;;;;;12.79;63.59;98785.81;10419387;28;20131;-64